Grand Meadow, Minnesota
Current Conditions -  °F | °C
As of 9:11 PM on Monday 26 Jan 2015 (Local Time) from KRST Reporting Station
Overcast Overcast  
Wind Chill: 26°   Ceiling: 2500
Heat Index: 35°   Visibility: 10mi
Dew Point: 31°   Wind: 15mph
Humidity: 85%   Direction: 320°NW
Pressure: 29.89"   Gusts: NA
Location:  43.71°N, 92.57°W
Report Text: KRST 270311Z 32013KT 10SM BKN025 OVC041 02/M01 A2989 RMK AO2 T00171006
Loading
Personal Weather Stations






























Interactive Weather Map New forecast layout! Learn more

10-Day Weather Forecast

Advertisements
Track Severe Weather on mobile